Masontown, Pennsylvania
Current Conditions -  °F | °C
As of 1:53 PM on Thursday 30 Oct 2014 (Local Time) from KMGW Reporting Station
Overcast Overcast  
Wind Chill: 50°   Ceiling: 4200
Heat Index: 50°   Visibility: 10mi
Dew Point: 34°   Wind: 3mph
Humidity: 54%   Direction: 280°W
Pressure: 30.09"   Gusts: NA
Location:  39.85°N, 79.9°W
Report Text: KMGW 301753Z 28003KT 10SM FEW030 OVC042 10/01 A3009 RMK AO2 SLP192 T01000011 10111 20072 58011
Loading
Personal Weather Stations






























Interactive Weather Map
Tropical Storm Tracking
New forecast layout! Learn more

10-Day Weather Forecast

Advertisements
Track Severe Weather on mobile